createdAt,value
2022-08-03T00:01:30.595Z,20.17
2022-08-03T00:03:57.626Z,20.18
2022-08-03T00:06:24.726Z,20.18
2022-08-03T00:08:52.032Z,20.19
2022-08-03T00:11:19.364Z,20.14
2022-08-03T00:13:46.654Z,20.09
2022-08-03T00:16:14.614Z,20.22
2022-08-03T00:18:42.324Z,20.23
2022-08-03T00:21:09.961Z,20.27
2022-08-03T00:23:51.266Z,20.25
2022-08-03T00:26:19.027Z,20.23
2022-08-03T00:28:46.010Z,20.26
2022-08-03T00:31:13.487Z,20.13
2022-08-03T00:33:59.034Z,20.23
2022-08-03T00:36:27.619Z,20.10
2022-08-03T00:38:55.056Z,20.22
2022-08-03T00:41:22.029Z,20.15
2022-08-03T00:43:49.072Z,20.16
2022-08-03T00:46:21.060Z,20.08
2022-08-03T00:48:52.767Z,20.09
2022-08-03T00:51:21.946Z,20.13
2022-08-03T00:53:50.278Z,20.02
2022-08-03T00:56:17.849Z,20.08
2022-08-03T00:58:48.001Z,19.93
2022-08-03T01:01:15.599Z,20.01
2022-08-03T01:03:43.098Z,20.00
2022-08-03T01:06:15.948Z,19.87
2022-08-03T01:08:57.315Z,19.96
2022-08-03T01:11:28.658Z,19.82
2022-08-03T01:14:27.350Z,19.92
2022-08-03T01:16:54.312Z,19.86
2022-08-03T01:19:52.839Z,19.92
2022-08-03T01:22:31.994Z,19.86
2022-08-03T01:25:22.302Z,19.81
2022-08-03T01:28:12.192Z,19.68
2022-08-03T01:30:43.850Z,19.61
2022-08-03T01:33:15.170Z,19.69
2022-08-03T01:35:48.333Z,19.71
2022-08-03T01:38:33.811Z,19.69
2022-08-03T01:41:07.969Z,19.66
2022-08-03T01:44:26.629Z,19.61
2022-08-03T01:46:26.423Z,19.61
2022-08-03T01:48:55.363Z,19.60
2022-08-03T01:51:23.924Z,19.60
2022-08-03T01:54:12.135Z,19.60
2022-08-03T01:56:42.959Z,19.61
2022-08-03T01:59:12.316Z,19.64
2022-08-03T02:02:32.170Z,19.66
2022-08-03T02:04:29.366Z,19.69
2022-08-03T02:07:01.157Z,19.71
2022-08-03T02:09:31.998Z,19.76
2022-08-03T02:12:00.885Z,19.80
2022-08-03T02:14:29.054Z,19.87
2022-08-03T02:16:57.654Z,19.93
2022-08-03T02:19:26.164Z,19.91
2022-08-03T02:21:56.602Z,19.96
2022-08-03T02:24:30.197Z,20.01
2022-08-03T02:26:58.888Z,20.05
2022-08-03T02:29:39.457Z,20.10
2022-08-03T02:32:17.632Z,20.19
2022-08-03T02:34:47.678Z,20.22
2022-08-03T02:37:18.153Z,20.29
2022-08-03T02:39:47.119Z,20.33
2022-08-03T02:42:17.406Z,20.38
2022-08-03T02:44:48.620Z,20.44
2022-08-03T02:47:21.147Z,20.49
2022-08-03T02:49:52.449Z,20.55
2022-08-03T02:52:23.526Z,20.61
2022-08-03T02:54:53.901Z,20.67
2022-08-03T02:57:23.559Z,20.78
2022-08-03T02:59:52.422Z,20.84
2022-08-03T03:02:20.793Z,20.91
2022-08-03T03:05:52.793Z,21.01
2022-08-03T03:07:51.256Z,21.04
2022-08-03T03:10:21.600Z,21.10
2022-08-03T03:12:52.288Z,21.19
2022-08-03T03:15:19.582Z,21.21
2022-08-03T03:17:49.878Z,21.29
2022-08-03T03:20:29.358Z,21.36
2022-08-03T03:23:00.637Z,21.45
2022-08-03T03:25:30.897Z,21.52
2022-08-03T03:28:00.391Z,21.57
2022-08-03T03:30:30.100Z,21.63
2022-08-03T03:32:58.968Z,21.76
2022-08-03T03:35:28.073Z,21.90
2022-08-03T03:37:55.482Z,22.02
2022-08-03T03:40:23.238Z,22.18
2022-08-03T03:42:50.839Z,22.18
2022-08-03T03:45:18.933Z,22.19
2022-08-03T03:47:46.004Z,22.16
2022-08-03T03:50:13.278Z,22.20
2022-08-03T03:52:40.291Z,22.15
2022-08-03T03:55:07.832Z,22.25
2022-08-03T03:57:35.311Z,22.32
2022-08-03T04:00:02.507Z,22.39
2022-08-03T04:02:31.842Z,22.40
2022-08-03T04:05:17.498Z,22.47
2022-08-03T04:08:16.612Z,22.57
2022-08-03T04:11:00.766Z,22.61
2022-08-03T04:13:40.733Z,22.62
2022-08-03T04:16:10.970Z,22.71
2022-08-03T04:18:40.581Z,22.70
2022-08-03T04:21:11.666Z,22.85
2022-08-03T04:23:44.999Z,22.93
2022-08-03T04:26:15.252Z,23.02
2022-08-03T04:28:46.178Z,23.01
2022-08-03T04:31:15.113Z,23.09
2022-08-03T04:33:45.026Z,23.25
2022-08-03T04:36:16.300Z,23.46
2022-08-03T04:39:06.965Z,23.88
2022-08-03T04:42:06.732Z,25.14
2022-08-03T04:44:28.127Z,26.35
2022-08-03T04:46:57.195Z,27.04
2022-08-03T04:49:24.759Z,27.95
2022-08-03T04:51:52.832Z,28.78
2022-08-03T04:54:19.827Z,29.57
2022-08-03T04:56:46.881Z,30.23
2022-08-03T04:59:14.325Z,30.94
2022-08-03T05:01:42.491Z,31.36
2022-08-03T05:04:09.821Z,32.04
2022-08-03T05:06:37.037Z,32.59
2022-08-03T05:09:15.038Z,33.06
2022-08-03T05:12:02.040Z,32.95
2022-08-03T05:14:29.165Z,33.60
2022-08-03T05:16:56.112Z,33.89
2022-08-03T05:19:23.136Z,34.36
2022-08-03T05:21:52.386Z,34.57
2022-08-03T05:24:20.083Z,34.63
2022-08-03T05:26:47.094Z,34.81
2022-08-03T05:29:14.176Z,35.55
2022-08-03T05:31:41.146Z,35.75
2022-08-03T05:34:08.411Z,35.69
2022-08-03T05:36:35.450Z,36.20
2022-08-03T05:39:03.022Z,36.69
2022-08-03T05:41:36.548Z,37.17
2022-08-03T05:44:05.174Z,37.34
2022-08-03T05:46:32.229Z,37.55
2022-08-03T05:48:59.387Z,37.78
2022-08-03T05:51:26.577Z,38.11
2022-08-03T05:53:53.605Z,38.46
2022-08-03T05:56:26.910Z,38.87
2022-08-03T05:58:54.160Z,39.05
2022-08-03T06:01:22.176Z,39.28
2022-08-03T06:03:50.904Z,39.33
2022-08-03T06:06:18.846Z,39.35
2022-08-03T06:08:46.607Z,38.83
2022-08-03T06:11:13.900Z,38.80
2022-08-03T06:13:41.696Z,38.90
2022-08-03T06:16:08.868Z,38.86
2022-08-03T06:18:36.507Z,38.56
2022-08-03T06:21:14.098Z,38.75
2022-08-03T06:23:53.179Z,39.16
2022-08-03T06:26:22.721Z,38.80
2022-08-03T06:28:52.812Z,39.09
2022-08-03T06:31:24.189Z,38.15
2022-08-03T06:34:34.182Z,37.90
2022-08-03T06:36:39.221Z,37.64
2022-08-03T06:39:06.495Z,37.83
2022-08-03T06:41:37.442Z,38.10
2022-08-03T06:44:08.533Z,38.19
2022-08-03T06:46:37.543Z,38.93
2022-08-03T06:49:04.663Z,39.60
2022-08-03T06:52:37.461Z,40.00
2022-08-03T06:54:19.029Z,40.39
2022-08-03T06:56:46.053Z,40.62
2022-08-03T07:00:05.888Z,40.58
2022-08-03T07:02:00.036Z,40.96
2022-08-03T07:04:26.982Z,40.96
2022-08-03T07:06:55.329Z,41.19
2022-08-03T07:09:22.677Z,41.60
2022-08-03T07:11:49.703Z,41.86
2022-08-03T07:14:16.812Z,42.09
2022-08-03T07:16:43.799Z,42.08
2022-08-03T07:19:11.231Z,41.19
2022-08-03T07:21:38.391Z,41.09
2022-08-03T07:24:05.897Z,40.14
2022-08-03T07:26:32.898Z,40.23
2022-08-03T07:29:01.665Z,39.91
2022-08-03T07:31:28.711Z,39.56
2022-08-03T07:34:01.602Z,39.77
2022-08-03T07:36:28.657Z,39.78
2022-08-03T07:38:55.650Z,40.09
2022-08-03T07:41:22.704Z,40.76
2022-08-03T07:43:49.709Z,39.77
2022-08-03T07:46:16.688Z,38.63
2022-08-03T07:48:43.670Z,38.99
2022-08-03T07:51:10.889Z,37.91
2022-08-03T07:53:37.925Z,37.12
2022-08-03T07:56:17.742Z,36.66
2022-08-03T07:58:44.785Z,38.46
2022-08-03T08:01:11.944Z,38.33
2022-08-03T08:03:52.373Z,39.60
2022-08-03T08:06:21.320Z,40.89
2022-08-03T08:08:48.412Z,41.75
2022-08-03T08:11:15.503Z,41.92
2022-08-03T08:13:42.552Z,42.88
2022-08-03T08:16:09.616Z,43.45
2022-08-03T08:18:40.124Z,43.32
2022-08-03T08:21:07.362Z,43.22
2022-08-03T08:23:42.032Z,42.33
2022-08-03T08:26:13.377Z,41.63
2022-08-03T08:28:40.459Z,40.92
2022-08-03T08:31:07.976Z,40.33
2022-08-03T08:36:24.131Z,40.32
2022-08-03T08:38:57.621Z,38.39
2022-08-03T08:41:25.847Z,38.19
2022-08-03T08:44:00.247Z,37.64
2022-08-03T08:46:42.661Z,37.67
2022-08-03T08:49:27.049Z,35.82
2022-08-03T08:52:00.915Z,34.97
2022-08-03T08:54:32.593Z,34.22
2022-08-03T08:57:21.094Z,34.52
2022-08-03T08:59:56.990Z,34.41
2022-08-03T09:02:25.340Z,34.18
2022-08-03T09:04:53.535Z,34.06
2022-08-03T09:07:20.878Z,33.85
2022-08-03T09:10:11.496Z,33.81
2022-08-03T09:12:48.192Z,33.96
2022-08-03T09:15:21.733Z,35.90
2022-08-03T09:17:51.306Z,35.67
2022-08-03T09:20:20.306Z,37.58
2022-08-03T09:22:59.408Z,37.65
2022-08-03T09:25:30.494Z,36.79
2022-08-03T09:28:05.318Z,36.18
2022-08-03T09:30:34.599Z,35.31
2022-08-03T09:33:04.312Z,34.93
2022-08-03T09:38:24.307Z,34.75
2022-08-03T09:40:54.835Z,35.57
2022-08-03T09:43:27.658Z,35.44
2022-08-03T09:46:07.602Z,34.49
2022-08-03T09:48:35.656Z,34.04
2022-08-03T09:51:13.836Z,34.73
2022-08-03T09:53:59.341Z,35.74
2022-08-03T09:56:45.130Z,38.21
2022-08-03T09:59:13.527Z,38.88
2022-08-03T10:01:42.017Z,39.96
2022-08-03T10:04:17.133Z,41.12
2022-08-03T10:06:45.744Z,41.53
2022-08-03T10:09:15.479Z,42.02
2022-08-03T10:11:43.869Z,41.95
2022-08-03T10:14:19.185Z,42.22
2022-08-03T10:16:47.921Z,42.54
2022-08-03T10:19:15.855Z,43.73
2022-08-03T10:21:50.178Z,44.22
2022-08-03T10:24:24.559Z,43.37
2022-08-03T10:26:51.873Z,43.34
2022-08-03T10:29:25.275Z,44.31
2022-08-03T10:31:58.129Z,44.36
2022-08-03T10:34:35.340Z,42.76
2022-08-03T10:37:08.586Z,41.48
2022-08-03T10:39:36.393Z,41.44
2022-08-03T10:42:05.535Z,41.68
2022-08-03T10:44:42.465Z,39.41
2022-08-03T10:47:10.442Z,38.73
2022-08-03T10:49:38.424Z,40.58
2022-08-03T10:52:13.758Z,40.91
2022-08-03T10:55:12.529Z,41.64
2022-08-03T10:57:56.229Z,40.69
2022-08-03T11:00:30.387Z,41.29
2022-08-03T11:03:08.913Z,41.86
2022-08-03T11:05:41.586Z,42.22
2022-08-03T11:08:28.815Z,39.96
2022-08-03T11:10:58.995Z,40.58
2022-08-03T11:13:31.066Z,42.77
2022-08-03T11:16:02.371Z,43.65
2022-08-03T11:18:31.131Z,44.44
2022-08-03T11:21:00.591Z,44.68
2022-08-03T11:24:04.309Z,43.72
2022-08-03T11:26:31.460Z,42.66
2022-08-03T11:29:31.058Z,40.62
2022-08-03T11:31:58.203Z,39.47
2022-08-03T11:34:25.295Z,38.28
2022-08-03T11:37:37.360Z,37.59
2022-08-03T11:40:04.924Z,36.91
2022-08-03T11:42:35.387Z,36.49
2022-08-03T11:45:07.710Z,36.21
2022-08-03T11:47:50.444Z,35.91
2022-08-03T11:50:20.063Z,35.12
2022-08-03T11:52:48.157Z,34.56
2022-08-03T11:55:20.488Z,34.27
2022-08-03T11:59:01.615Z,34.09
2022-08-03T12:00:35.561Z,33.81
2022-08-03T12:03:12.149Z,33.61
2022-08-03T12:05:42.506Z,33.45
2022-08-03T12:08:40.128Z,33.17
2022-08-03T12:11:10.864Z,33.07
2022-08-03T12:13:56.647Z,32.78
2022-08-03T12:16:29.156Z,32.73
2022-08-03T12:19:05.254Z,32.76
2022-08-03T12:21:32.829Z,32.76
2022-08-03T12:24:03.551Z,32.57
2022-08-03T12:26:58.815Z,32.39
2022-08-03T12:29:27.250Z,32.20
2022-08-03T12:31:55.952Z,31.70
2022-08-03T12:34:23.473Z,32.00
2022-08-03T12:36:52.577Z,32.37
2022-08-03T12:39:24.385Z,32.46
2022-08-03T12:41:55.537Z,32.25
2022-08-03T12:44:33.927Z,32.08
2022-08-03T12:47:02.527Z,32.18
2022-08-03T12:49:44.466Z,32.17
2022-08-03T12:52:11.666Z,32.00
2022-08-03T12:54:38.727Z,31.95
2022-08-03T12:57:08.248Z,31.97
2022-08-03T12:59:45.211Z,32.09
2022-08-03T13:02:24.182Z,32.09
2022-08-03T13:04:54.174Z,32.25
2022-08-03T13:07:22.191Z,32.28
2022-08-03T13:09:54.707Z,32.27
2022-08-03T13:12:26.317Z,32.23
2022-08-03T13:14:59.354Z,32.18
2022-08-03T13:17:27.253Z,32.13
2022-08-03T13:19:54.322Z,32.06
2022-08-03T13:22:27.459Z,32.02
2022-08-03T13:24:56.746Z,31.90
2022-08-03T13:28:03.721Z,31.78
2022-08-03T13:30:12.335Z,31.63
2022-08-03T13:32:39.611Z,31.53
2022-08-03T13:35:07.830Z,31.49
2022-08-03T13:37:35.623Z,31.39
2022-08-03T13:40:05.865Z,31.28
2022-08-03T13:42:34.601Z,31.24
2022-08-03T13:45:02.549Z,31.18
2022-08-03T13:47:31.391Z,31.08
2022-08-03T13:50:01.197Z,31.00
2022-08-03T13:52:34.280Z,30.95
2022-08-03T13:55:06.447Z,30.84
2022-08-03T13:58:03.515Z,30.73
2022-08-03T14:00:27.433Z,30.65
2022-08-03T14:03:12.264Z,30.52
2022-08-03T14:05:42.152Z,30.57
2022-08-03T14:08:09.545Z,30.46
2022-08-03T14:10:38.929Z,30.45
2022-08-03T14:13:06.873Z,30.42
2022-08-03T14:15:37.902Z,30.45
2022-08-03T14:18:15.702Z,30.53
2022-08-03T14:20:48.720Z,30.51
2022-08-03T14:23:18.795Z,30.50
2022-08-03T14:25:51.641Z,30.55
2022-08-03T14:28:22.756Z,30.63
2022-08-03T14:30:56.050Z,30.70
2022-08-03T14:33:24.484Z,30.71
2022-08-03T14:35:52.293Z,30.69
2022-08-03T14:38:20.239Z,30.70
2022-08-03T14:40:47.919Z,30.70
2022-08-03T14:43:15.689Z,30.63
2022-08-03T14:45:42.821Z,30.57
2022-08-03T14:50:29.667Z,30.56
2022-08-03T14:50:57.241Z,30.51
2022-08-03T14:53:24.620Z,30.48
2022-08-03T14:55:53.488Z,30.40
2022-08-03T14:58:22.303Z,30.35
2022-08-03T15:00:51.049Z,30.23
2022-08-03T15:03:21.577Z,30.12
2022-08-03T15:05:55.756Z,30.09
2022-08-03T15:08:24.817Z,30.09
2022-08-03T15:10:52.787Z,30.03
2022-08-03T15:13:20.891Z,29.93
2022-08-03T15:15:48.615Z,29.92
2022-08-03T15:18:16.019Z,29.86
2022-08-03T15:20:45.597Z,29.83
2022-08-03T15:23:14.937Z,29.69
2022-08-03T15:26:28.329Z,29.74
2022-08-03T15:28:30.692Z,29.73
2022-08-03T15:30:57.888Z,29.74
2022-08-03T15:33:25.390Z,29.52
2022-08-03T15:35:53.455Z,29.58
2022-08-03T15:38:25.627Z,29.53
2022-08-03T15:40:59.193Z,29.45
2022-08-03T15:43:26.300Z,29.34
2022-08-03T15:48:41.691Z,29.20
2022-08-03T15:51:09.688Z,29.12
2022-08-03T15:53:37.381Z,29.08
2022-08-03T15:56:09.830Z,28.97
2022-08-03T15:59:09.202Z,28.89
2022-08-03T16:01:27.975Z,28.82
2022-08-03T16:03:55.623Z,28.74
2022-08-03T16:06:34.840Z,28.72
2022-08-03T16:09:23.823Z,28.66
2022-08-03T16:11:54.068Z,28.59
2022-08-03T16:14:34.301Z,28.55
2022-08-03T16:17:03.912Z,28.48
2022-08-03T16:19:30.971Z,28.44
2022-08-03T16:21:57.989Z,28.40
2022-08-03T16:24:28.127Z,28.34
2022-08-03T16:26:56.422Z,28.28
2022-08-03T16:29:24.043Z,28.19
2022-08-03T16:31:52.394Z,28.12
2022-08-03T16:34:20.122Z,28.03
2022-08-03T16:36:47.271Z,27.95
2022-08-03T16:39:14.297Z,27.91
2022-08-03T16:41:53.976Z,27.85
2022-08-03T16:44:30.220Z,27.77
2022-08-03T16:46:57.968Z,27.65
2022-08-03T16:49:54.265Z,27.60
2022-08-03T16:52:13.016Z,27.50
2022-08-03T16:54:40.855Z,27.40
2022-08-03T16:57:08.783Z,27.31
2022-08-03T16:59:36.969Z,27.22
2022-08-03T17:02:10.037Z,27.08
2022-08-03T17:04:40.232Z,27.03
2022-08-03T17:07:08.889Z,26.93
2022-08-03T17:09:38.185Z,26.84
2022-08-03T17:12:07.166Z,26.75
2022-08-03T17:14:34.303Z,26.69
2022-08-03T17:17:03.857Z,26.64
2022-08-03T17:19:33.369Z,26.58
2022-08-03T17:22:04.356Z,26.50
2022-08-03T17:24:41.349Z,26.43
2022-08-03T17:28:41.602Z,26.35
2022-08-03T17:30:12.222Z,26.27
2022-08-03T17:32:57.129Z,26.24
2022-08-03T17:35:36.701Z,26.14
2022-08-03T17:38:10.289Z,26.07
2022-08-03T17:40:48.157Z,26.04
2022-08-03T17:44:13.019Z,25.96
2022-08-03T17:46:07.315Z,25.89
2022-08-03T17:48:41.357Z,25.89
2022-08-03T17:51:30.450Z,25.92
2022-08-03T17:54:27.031Z,25.89
2022-08-03T17:56:54.692Z,25.84
2022-08-03T17:59:51.497Z,25.79
2022-08-03T18:06:11.371Z,25.72
2022-08-03T18:08:27.812Z,25.71
2022-08-03T18:11:16.851Z,25.70
2022-08-03T18:13:57.613Z,25.68
2022-08-03T18:16:34.711Z,25.64
2022-08-03T18:19:09.552Z,25.66
2022-08-03T18:22:03.088Z,25.62
2022-08-03T18:24:30.923Z,25.62
2022-08-03T18:27:02.311Z,25.68
2022-08-03T18:29:30.818Z,25.70
2022-08-03T18:32:03.415Z,25.73
2022-08-03T18:34:34.613Z,25.70
2022-08-03T18:37:07.364Z,25.68
2022-08-03T18:39:49.559Z,25.68
2022-08-03T18:42:19.499Z,25.69
2022-08-03T18:44:53.105Z,25.68
2022-08-03T18:47:50.969Z,25.68
2022-08-03T18:50:34.184Z,25.60
2022-08-03T18:54:03.419Z,25.57
2022-08-03T18:56:31.786Z,25.47
2022-08-03T18:59:30.301Z,25.39
2022-08-03T19:02:05.237Z,25.37
2022-08-03T19:04:55.160Z,25.28
2022-08-03T19:07:27.124Z,25.27
2022-08-03T19:09:58.439Z,25.21
2022-08-03T19:12:39.492Z,25.05
2022-08-03T19:15:13.389Z,25.02
2022-08-03T19:17:50.237Z,24.93
2022-08-03T19:20:31.114Z,24.91
2022-08-03T19:22:59.662Z,24.88
2022-08-03T19:25:35.421Z,24.82
2022-08-03T19:28:07.200Z,24.81
2022-08-03T19:30:38.821Z,24.62
2022-08-03T19:33:14.507Z,24.65
2022-08-03T19:35:55.450Z,24.61
2022-08-03T19:38:28.224Z,24.54
2022-08-03T19:40:59.857Z,24.48
2022-08-03T19:43:52.850Z,24.40
2022-08-03T19:46:30.179Z,24.30
2022-08-03T19:49:16.040Z,24.25
2022-08-03T19:51:59.412Z,24.17
2022-08-03T19:54:52.923Z,24.10
2022-08-03T19:57:30.756Z,24.07
2022-08-03T20:00:03.597Z,24.02
2022-08-03T20:02:40.590Z,23.97
2022-08-03T20:08:00.163Z,23.88
2022-08-03T20:10:33.233Z,23.81
2022-08-03T20:13:01.876Z,23.75
2022-08-03T20:15:33.800Z,23.74
2022-08-03T20:18:16.883Z,23.69
2022-08-03T20:20:59.978Z,23.58
2022-08-03T20:23:37.306Z,23.59
2022-08-03T20:26:05.801Z,23.54
2022-08-03T20:28:49.703Z,23.48
2022-08-03T20:31:20.809Z,23.41
2022-08-03T20:33:49.784Z,23.37
2022-08-03T20:36:18.568Z,23.33
2022-08-03T20:38:48.062Z,23.30
2022-08-03T20:41:17.439Z,23.28
2022-08-03T20:43:45.165Z,23.27
2022-08-03T20:46:29.474Z,23.22
2022-08-03T20:49:04.102Z,23.18
2022-08-03T20:51:50.051Z,23.02
2022-08-03T20:54:30.810Z,23.12
2022-08-03T20:57:03.841Z,23.07
2022-08-03T20:59:47.090Z,23.06
2022-08-03T21:02:28.822Z,23.02
2022-08-03T21:05:03.219Z,23.00
2022-08-03T21:08:04.161Z,22.94
2022-08-03T21:10:29.585Z,22.91
2022-08-03T21:12:56.490Z,25.76
2022-08-03T21:13:10.908Z,23.91
2022-08-03T21:13:18.196Z,22.90
2022-08-03T21:16:11.386Z,22.87
2022-08-03T21:18:49.532Z,22.83
2022-08-03T21:21:20.170Z,22.77
2022-08-03T21:23:52.844Z,22.72
2022-08-03T21:26:25.480Z,22.65
2022-08-03T21:28:54.975Z,22.68
2022-08-03T21:31:25.378Z,22.65
2022-08-03T21:33:56.255Z,22.62
2022-08-03T21:36:24.891Z,22.57
2022-08-03T21:38:56.190Z,22.52
2022-08-03T21:41:25.428Z,22.49
2022-08-03T21:43:52.496Z,22.49
2022-08-03T21:46:20.735Z,22.46
2022-08-03T21:48:51.406Z,22.40
2022-08-03T21:51:20.109Z,22.39
2022-08-03T21:54:00.385Z,22.35
2022-08-03T21:56:41.280Z,22.32
2022-08-03T21:59:17.245Z,22.28
2022-08-03T22:01:49.039Z,22.25
2022-08-03T22:04:50.387Z,22.21
2022-08-03T22:07:08.633Z,22.15
2022-08-03T22:09:36.562Z,22.08
2022-08-03T22:12:04.566Z,22.06
2022-08-03T22:14:34.962Z,22.02
2022-08-03T22:17:03.380Z,21.99
2022-08-03T22:19:33.174Z,21.96
2022-08-03T22:22:01.753Z,21.93
2022-08-03T22:24:32.087Z,21.88
2022-08-03T22:27:19.988Z,21.84
2022-08-03T22:29:47.360Z,21.66
2022-08-03T22:32:14.343Z,21.72
2022-08-03T22:34:43.009Z,21.71
2022-08-03T22:37:11.519Z,21.65
2022-08-03T22:39:39.963Z,21.62
2022-08-03T22:42:07.413Z,21.58
2022-08-03T22:44:36.049Z,21.58
2022-08-03T22:47:04.462Z,21.49
2022-08-03T22:49:32.647Z,21.50
2022-08-03T22:52:01.499Z,21.49
2022-08-03T22:54:31.439Z,21.36
2022-08-03T22:56:58.797Z,21.43
2022-08-03T22:59:40.488Z,21.41
2022-08-03T23:02:20.169Z,21.42
2022-08-03T23:04:52.389Z,21.39
2022-08-03T23:07:23.635Z,21.40
2022-08-03T23:09:51.687Z,21.25
2022-08-03T23:12:20.446Z,21.39
2022-08-03T23:14:56.523Z,21.37
2022-08-03T23:17:24.435Z,21.35
2022-08-03T23:19:53.879Z,21.31
2022-08-03T23:22:30.056Z,21.30
2022-08-03T23:24:59.237Z,21.28
2022-08-03T23:27:28.235Z,21.28
2022-08-03T23:29:58.549Z,21.26
2022-08-03T23:32:27.370Z,21.19
2022-08-03T23:35:18.949Z,21.19
2022-08-03T23:38:04.203Z,21.18
2022-08-03T23:40:35.372Z,21.10
2022-08-03T23:43:03.485Z,21.04
2022-08-03T23:45:34.695Z,21.00
2022-08-03T23:48:01.975Z,20.99
2022-08-03T23:50:37.952Z,21.01
2022-08-03T23:53:14.153Z,21.00
2022-08-03T23:56:04.549Z,20.95
2022-08-03T23:58:52.931Z,20.92
